createdAt,value
2022-09-01T00:00:05.726Z,997.27
2022-09-01T00:01:05.712Z,997.25
2022-09-01T00:02:05.737Z,997.26
2022-09-01T00:03:05.685Z,997.27
2022-09-01T00:04:05.734Z,997.27
2022-09-01T00:05:05.652Z,997.25
2022-09-01T00:06:05.638Z,997.27
2022-09-01T00:07:05.624Z,997.26
2022-09-01T00:08:05.605Z,997.27
2022-09-01T00:09:05.595Z,997.27
2022-09-01T00:10:05.578Z,997.31
2022-09-01T00:11:05.563Z,997.31
2022-09-01T00:12:05.548Z,997.29
2022-09-01T00:13:05.531Z,997.33
2022-09-01T00:14:05.518Z,997.32
2022-09-01T00:15:05.503Z,997.35
2022-09-01T00:16:05.537Z,997.31
2022-09-01T00:17:05.473Z,997.31
2022-09-01T00:18:05.462Z,997.33
2022-09-01T00:19:05.446Z,997.33
2022-09-01T00:20:05.427Z,997.35
2022-09-01T00:21:05.413Z,997.34
2022-09-01T00:22:05.403Z,997.38
2022-09-01T00:23:05.384Z,997.35
2022-09-01T00:24:05.369Z,997.34
2022-09-01T00:25:05.572Z,997.35
2022-09-01T00:26:05.341Z,997.36
2022-09-01T00:27:05.331Z,997.31
2022-09-01T00:28:05.317Z,997.32
2022-09-01T00:29:05.294Z,997.31
2022-09-01T00:30:05.277Z,997.32
2022-09-01T00:31:05.338Z,997.29
2022-09-01T00:32:05.248Z,997.30
2022-09-01T00:33:05.236Z,997.34
2022-09-01T00:34:05.220Z,997.36
2022-09-01T00:35:05.214Z,997.30
2022-09-01T00:36:05.187Z,997.31
2022-09-01T00:37:05.178Z,997.29
2022-09-01T00:38:05.162Z,997.33
2022-09-01T00:39:05.145Z,997.33
2022-09-01T00:40:05.130Z,997.28
2022-09-01T00:41:05.113Z,997.28
2022-09-01T00:42:05.101Z,997.32
2022-09-01T00:43:05.086Z,997.26
2022-09-01T00:44:05.072Z,997.27
2022-09-01T00:45:05.055Z,997.26
2022-09-01T00:46:05.091Z,997.27
2022-09-01T00:47:05.024Z,997.24
2022-09-01T00:48:05.009Z,997.25
2022-09-01T00:49:04.995Z,997.25
2022-09-01T00:50:04.978Z,997.22
2022-09-01T00:51:04.965Z,997.24
2022-09-01T00:52:04.951Z,997.22
2022-09-01T00:53:04.934Z,997.22
2022-09-01T00:54:04.925Z,997.24
2022-09-01T00:55:04.906Z,997.21
2022-09-01T00:56:04.888Z,997.20
2022-09-01T00:57:04.873Z,997.22
2022-09-01T00:58:04.856Z,997.21
2022-09-01T00:59:04.844Z,997.21
2022-09-01T01:00:04.827Z,997.19
2022-09-01T01:01:04.888Z,997.20
2022-09-01T01:02:04.827Z,997.18
2022-09-01T01:03:04.783Z,997.20
2022-09-01T01:04:04.768Z,997.18
2022-09-01T01:05:04.753Z,997.18
2022-09-01T01:06:04.737Z,997.20
2022-09-01T01:07:04.723Z,997.20
2022-09-01T01:08:04.707Z,997.21
2022-09-01T01:09:04.692Z,997.19
2022-09-01T01:10:04.678Z,997.16
2022-09-01T01:11:04.663Z,997.17
2022-09-01T01:12:04.644Z,997.18
2022-09-01T01:13:04.635Z,997.14
2022-09-01T01:14:04.617Z,997.15
2022-09-01T01:15:04.601Z,997.15
2022-09-01T01:16:04.587Z,997.12
2022-09-01T01:17:04.640Z,997.07
2022-09-01T01:18:04.555Z,997.08
2022-09-01T01:19:04.542Z,997.09
2022-09-01T01:20:04.524Z,997.13
2022-09-01T01:21:04.509Z,997.07
2022-09-01T01:22:04.491Z,997.11
2022-09-01T01:23:04.477Z,997.07
2022-09-01T01:24:04.462Z,997.06
2022-09-01T01:25:04.449Z,997.07
2022-09-01T01:26:04.433Z,997.09
2022-09-01T01:27:04.419Z,997.11
2022-09-01T01:28:04.400Z,997.12
2022-09-01T01:29:04.384Z,997.09
2022-09-01T01:30:04.372Z,997.05
2022-09-01T01:31:04.392Z,997.05
2022-09-01T01:32:04.336Z,996.99
2022-09-01T01:33:04.325Z,997.01
2022-09-01T01:34:04.307Z,997.00
2022-09-01T01:35:04.295Z,996.98
2022-09-01T01:36:04.275Z,996.97
2022-09-01T01:37:04.263Z,996.94
2022-09-01T01:38:04.244Z,996.98
2022-09-01T01:39:04.232Z,996.95
2022-09-01T01:40:04.327Z,996.99
2022-09-01T01:41:04.199Z,996.97
2022-09-01T01:42:04.183Z,996.99
2022-09-01T01:43:04.171Z,996.95
2022-09-01T01:44:04.153Z,996.94
2022-09-01T01:45:04.140Z,996.92
2022-09-01T01:46:04.167Z,996.90
2022-09-01T01:47:04.108Z,996.95
2022-09-01T01:48:04.090Z,996.95
2022-09-01T01:49:04.077Z,996.93
2022-09-01T01:50:04.061Z,996.90
2022-09-01T01:51:04.046Z,996.93
2022-09-01T01:52:04.028Z,996.91
2022-09-01T01:53:04.013Z,996.92
2022-09-01T01:54:03.999Z,996.93
2022-09-01T01:55:05.335Z,996.93
2022-09-01T01:56:03.966Z,996.97
2022-09-01T01:57:03.951Z,996.96
2022-09-01T01:58:03.935Z,996.97
2022-09-01T01:59:03.920Z,996.99
2022-09-01T02:00:03.907Z,996.97
2022-09-01T02:01:03.980Z,996.98
2022-09-01T02:02:04.161Z,997.02
2022-09-01T02:03:03.862Z,997.03
2022-09-01T02:04:03.845Z,996.98
2022-09-01T02:05:03.830Z,997.03
2022-09-01T02:06:03.815Z,997.00
2022-09-01T02:07:03.799Z,996.98
2022-09-01T02:08:03.782Z,996.98
2022-09-01T02:09:03.767Z,996.96
2022-09-01T02:10:03.750Z,996.99
2022-09-01T02:11:03.741Z,996.97
2022-09-01T02:12:03.723Z,996.98
2022-09-01T02:13:03.707Z,996.96
2022-09-01T02:14:03.692Z,997.00
2022-09-01T02:15:03.675Z,997.00
2022-09-01T02:16:03.659Z,997.01
2022-09-01T02:17:03.751Z,997.03
2022-09-01T02:18:05.180Z,997.03
2022-09-01T02:19:03.611Z,997.00
2022-09-01T02:20:03.600Z,997.00
2022-09-01T02:21:03.582Z,997.02
2022-09-01T02:22:03.571Z,997.01
2022-09-01T02:23:03.550Z,996.99
2022-09-01T02:24:03.542Z,997.06
2022-09-01T02:25:03.518Z,997.04
2022-09-01T02:26:16.227Z,996.99
2022-09-01T02:27:03.491Z,996.99
2022-09-01T02:28:03.480Z,997.05
2022-09-01T02:29:03.459Z,997.04
2022-09-01T02:30:03.442Z,996.97
2022-09-01T02:31:03.459Z,996.99
2022-09-01T02:32:03.411Z,996.99
2022-09-01T02:33:03.416Z,996.99
2022-09-01T02:34:03.379Z,996.98
2022-09-01T02:35:03.365Z,997.04
2022-09-01T02:36:03.350Z,996.99
2022-09-01T02:37:03.334Z,997.02
2022-09-01T02:38:03.316Z,996.97
2022-09-01T02:39:03.299Z,996.94
2022-09-01T02:40:03.323Z,996.99
2022-09-01T02:41:03.272Z,996.99
2022-09-01T02:42:03.257Z,996.95
2022-09-01T02:43:03.239Z,996.91
2022-09-01T02:44:03.222Z,996.94
2022-09-01T02:45:03.210Z,996.87
2022-09-01T02:46:03.251Z,996.97
2022-09-01T02:47:03.174Z,996.89
2022-09-01T02:48:03.160Z,996.87
2022-09-01T02:49:03.142Z,996.90
2022-09-01T02:50:03.144Z,996.89
2022-09-01T02:51:03.114Z,996.88
2022-09-01T02:52:03.098Z,996.88
2022-09-01T02:53:04.015Z,996.86
2022-09-01T02:54:03.069Z,996.85
2022-09-01T02:55:03.051Z,996.84
2022-09-01T02:56:03.036Z,996.86
2022-09-01T02:57:03.019Z,996.87
2022-09-01T02:58:03.003Z,996.80
2022-09-01T02:59:02.986Z,996.83
2022-09-01T03:00:02.972Z,996.85
2022-09-01T03:01:03.041Z,996.84
2022-09-01T03:02:02.943Z,996.80
2022-09-01T03:03:02.923Z,996.85
2022-09-01T03:04:02.907Z,996.85
2022-09-01T03:05:03.025Z,996.84
2022-09-01T03:06:02.876Z,996.84
2022-09-01T03:07:02.860Z,996.83
2022-09-01T03:08:02.844Z,996.83
2022-09-01T03:09:02.828Z,996.85
2022-09-01T03:10:02.813Z,996.89
2022-09-01T03:11:02.809Z,996.84
2022-09-01T03:12:02.782Z,996.81
2022-09-01T03:13:02.785Z,996.82
2022-09-01T03:14:02.750Z,996.83
2022-09-01T03:15:02.734Z,996.82
2022-09-01T03:16:02.730Z,996.80
2022-09-01T03:17:02.785Z,996.79
2022-09-01T03:18:02.688Z,996.80
2022-09-01T03:19:02.670Z,996.84
2022-09-01T03:20:02.656Z,996.78
2022-09-01T03:21:02.641Z,996.81
2022-09-01T03:22:02.626Z,996.79
2022-09-01T03:23:02.611Z,996.77
2022-09-01T03:24:02.592Z,996.78
2022-09-01T03:25:02.575Z,996.78
2022-09-01T03:26:02.562Z,996.76
2022-09-01T03:27:02.547Z,996.76
2022-09-01T03:28:03.140Z,996.78
2022-09-01T03:29:02.514Z,996.71
2022-09-01T03:30:02.500Z,996.79
2022-09-01T03:31:02.477Z,996.76
2022-09-01T03:32:02.545Z,996.78
2022-09-01T03:33:02.447Z,996.80
2022-09-01T03:34:02.595Z,996.81
2022-09-01T03:35:02.415Z,996.80
2022-09-01T03:36:02.404Z,996.81
2022-09-01T03:37:02.383Z,996.81
2022-09-01T03:38:02.371Z,996.79
2022-09-01T03:39:02.356Z,996.81
2022-09-01T03:40:02.375Z,996.81
2022-09-01T03:41:02.388Z,996.76
2022-09-01T03:42:02.304Z,996.81
2022-09-01T03:43:02.289Z,996.86
2022-09-01T03:44:02.271Z,996.81
2022-09-01T03:45:02.256Z,996.80
2022-09-01T03:46:02.344Z,996.82
2022-09-01T03:47:02.251Z,996.81
2022-09-01T03:48:02.221Z,996.83
2022-09-01T03:49:02.191Z,996.83
2022-09-01T03:50:02.176Z,996.79
2022-09-01T03:51:02.158Z,996.81
2022-09-01T03:52:02.146Z,996.81
2022-09-01T03:53:02.127Z,996.80
2022-09-01T03:54:02.114Z,996.81
2022-09-01T03:55:02.096Z,996.79
2022-09-01T03:56:02.152Z,996.78
2022-09-01T03:57:02.060Z,996.77
2022-09-01T03:58:02.046Z,996.79
2022-09-01T03:59:02.028Z,996.78
2022-09-01T04:00:02.016Z,996.76
2022-09-01T04:01:02.112Z,996.75
2022-09-01T04:02:02.030Z,996.76
2022-09-01T04:03:01.966Z,996.77
2022-09-01T04:04:01.955Z,996.74
2022-09-01T04:05:04.372Z,996.77
2022-09-01T04:06:01.917Z,996.77
2022-09-01T04:07:01.902Z,996.78
2022-09-01T04:08:01.912Z,996.75
2022-09-01T04:09:01.868Z,996.79
2022-09-01T04:10:01.857Z,996.77
2022-09-01T04:11:01.836Z,996.72
2022-09-01T04:12:01.822Z,996.80
2022-09-01T04:13:01.817Z,996.81
2022-09-01T04:14:01.790Z,996.83
2022-09-01T04:15:01.773Z,996.83
2022-09-01T04:16:01.805Z,996.82
2022-09-01T04:17:01.746Z,996.80
2022-09-01T04:18:01.725Z,996.83
2022-09-01T04:19:01.707Z,996.80
2022-09-01T04:20:01.690Z,996.82
2022-09-01T04:21:01.677Z,996.84
2022-09-01T04:22:01.659Z,996.83
2022-09-01T04:23:01.646Z,996.81
2022-09-01T04:24:01.624Z,996.79
2022-09-01T04:25:01.608Z,996.83
2022-09-01T04:26:01.594Z,996.82
2022-09-01T04:27:01.582Z,996.87
2022-09-01T04:28:01.561Z,996.81
2022-09-01T04:29:01.544Z,996.83
2022-09-01T04:30:01.548Z,996.82
2022-09-01T04:31:01.516Z,996.87
2022-09-01T04:32:01.593Z,996.83
2022-09-01T04:33:01.476Z,996.88
2022-09-01T04:34:01.463Z,996.86
2022-09-01T04:35:01.449Z,996.88
2022-09-01T04:36:01.430Z,996.87
2022-09-01T04:37:01.413Z,996.87
2022-09-01T04:38:01.400Z,996.82
2022-09-01T04:39:01.381Z,996.82
2022-09-01T04:40:01.460Z,996.83
2022-09-01T04:41:01.348Z,996.84
2022-09-01T04:42:01.336Z,996.85
2022-09-01T04:43:01.321Z,996.87
2022-09-01T04:44:01.301Z,996.79
2022-09-01T04:45:01.960Z,996.85
2022-09-01T04:46:01.333Z,996.86
2022-09-01T04:47:01.253Z,996.89
2022-09-01T04:48:01.238Z,996.87
2022-09-01T04:49:01.325Z,996.87
2022-09-01T04:50:01.214Z,996.86
2022-09-01T04:51:01.225Z,996.88
2022-09-01T04:52:01.243Z,996.89
2022-09-01T04:53:01.159Z,996.87
2022-09-01T04:54:01.138Z,996.87
2022-09-01T04:55:01.120Z,996.90
2022-09-01T04:56:01.105Z,996.89
2022-09-01T04:57:01.088Z,996.89
2022-09-01T04:58:01.072Z,996.90
2022-09-01T04:59:01.070Z,996.90
2022-09-01T05:00:01.044Z,996.92
2022-09-01T05:01:01.043Z,996.93
2022-09-01T05:02:01.040Z,996.91
2022-09-01T05:03:00.992Z,996.92
2022-09-01T05:04:00.978Z,996.97
2022-09-01T05:05:00.957Z,996.97
2022-09-01T05:06:00.942Z,996.97
2022-09-01T05:07:00.966Z,996.94
2022-09-01T05:08:00.909Z,996.88
2022-09-01T05:09:00.893Z,996.92
2022-09-01T05:10:01.564Z,996.88
2022-09-01T05:11:00.987Z,996.94
2022-09-01T05:12:00.843Z,996.93
2022-09-01T05:13:00.828Z,996.95
2022-09-01T05:14:00.824Z,996.97
2022-09-01T05:15:00.798Z,996.93
2022-09-01T05:16:00.804Z,996.98
2022-09-01T05:17:00.766Z,996.98
2022-09-01T05:18:00.750Z,996.98
2022-09-01T05:19:00.750Z,996.96
2022-09-01T05:20:00.722Z,997.02
2022-09-01T05:21:00.700Z,996.98
2022-09-01T05:22:00.687Z,996.97
2022-09-01T05:23:00.676Z,996.99
2022-09-01T05:24:00.658Z,996.99
2022-09-01T05:25:00.729Z,997.01
2022-09-01T05:26:00.623Z,996.98
2022-09-01T05:27:00.634Z,996.99
2022-09-01T05:28:00.591Z,997.04
2022-09-01T05:29:00.578Z,997.02
2022-09-01T05:30:00.560Z,997.02
2022-09-01T05:31:00.597Z,997.01
2022-09-01T05:32:00.529Z,997.03
2022-09-01T05:33:00.510Z,997.00
2022-09-01T05:34:00.520Z,997.03
2022-09-01T05:35:00.482Z,997.03
2022-09-01T05:36:00.464Z,997.06
2022-09-01T05:37:00.453Z,997.07
2022-09-01T05:38:00.438Z,997.08
2022-09-01T05:39:00.416Z,997.08
2022-09-01T05:40:00.402Z,997.10
2022-09-01T05:41:00.388Z,997.07
2022-09-01T05:42:00.377Z,997.08
2022-09-01T05:43:00.356Z,997.07
2022-09-01T05:44:01.060Z,997.04
2022-09-01T05:45:00.336Z,997.05
2022-09-01T05:46:06.699Z,997.04
2022-09-01T05:47:00.370Z,997.03
2022-09-01T05:48:00.278Z,997.02
2022-09-01T05:49:00.270Z,997.04
2022-09-01T05:50:00.249Z,997.04
2022-09-01T05:51:00.232Z,997.02
2022-09-01T05:52:00.219Z,997.00
2022-09-01T05:53:00.202Z,997.02
2022-09-01T05:54:00.274Z,997.03
2022-09-01T05:55:00.212Z,997.04
2022-09-01T05:56:00.158Z,997.05
2022-09-01T05:57:17.472Z,997.04
2022-09-01T05:58:00.130Z,997.08
2022-09-01T06:00:00.096Z,997.08
2022-09-01T06:01:00.086Z,997.10
2022-09-01T06:02:00.314Z,997.10
2022-09-01T06:03:00.317Z,997.13
2022-09-01T06:04:00.064Z,997.17
2022-09-01T06:05:09.032Z,997.12
2022-09-01T06:07:07.901Z,997.19
2022-09-01T06:08:05.504Z,997.19
2022-09-01T06:10:11.387Z,997.15
2022-09-01T06:11:11.285Z,997.20
2022-09-01T06:13:17.060Z,997.18
2022-09-01T06:14:16.412Z,997.20
2022-09-01T06:16:11.211Z,997.22
2022-09-01T06:17:11.063Z,997.25
2022-09-01T06:19:16.567Z,997.29
2022-09-01T06:20:16.556Z,997.26
2022-09-01T06:22:21.822Z,997.27
2022-09-01T06:23:22.319Z,997.25
2022-09-01T06:25:27.554Z,997.30
2022-09-01T06:26:27.602Z,997.31
2022-09-01T06:28:34.251Z,997.29
2022-09-01T06:29:34.424Z,997.28
2022-09-01T06:31:40.096Z,997.24
2022-09-01T06:32:39.940Z,997.26
2022-09-01T06:33:39.993Z,997.21
2022-09-01T06:34:39.936Z,997.24
2022-09-01T06:35:39.927Z,997.24
2022-09-01T06:36:39.528Z,997.25
2022-09-01T06:37:39.535Z,997.22
2022-09-01T06:38:39.513Z,997.24
2022-09-01T06:39:39.521Z,997.24
2022-09-01T06:40:39.940Z,997.22
2022-09-01T06:41:39.824Z,997.24
2022-09-01T06:42:39.445Z,997.26
2022-09-01T06:43:39.432Z,997.30
2022-09-01T06:44:40.980Z,997.28
2022-09-01T06:45:39.401Z,997.23
2022-09-01T06:46:39.507Z,997.24
2022-09-01T06:47:39.372Z,997.19
2022-09-01T06:48:39.374Z,997.21
2022-09-01T06:49:39.348Z,997.21
2022-09-01T06:51:39.320Z,997.20
2022-09-01T06:53:39.297Z,997.23
2022-09-01T06:54:39.305Z,997.25
2022-09-01T06:55:39.263Z,997.25
2022-09-01T06:56:44.801Z,997.27
2022-09-01T06:58:39.228Z,997.31
2022-09-01T06:59:39.209Z,997.24
2022-09-01T07:00:39.198Z,997.29
2022-09-01T07:02:39.183Z,997.34
2022-09-01T07:03:39.158Z,997.36
2022-09-01T07:04:39.143Z,997.34
2022-09-01T07:09:18.966Z,997.41
2022-09-01T07:09:50.108Z,997.38
2022-09-01T07:11:19.465Z,997.36
2022-09-01T07:12:39.044Z,997.44
2022-09-01T07:13:39.705Z,997.39
2022-09-01T07:16:30.212Z,997.41
2022-09-01T07:16:40.307Z,997.41
2022-09-01T07:17:38.972Z,997.42
2022-09-01T07:18:38.964Z,997.38
2022-09-01T07:19:54.315Z,997.40
2022-09-01T07:21:02.801Z,997.38
2022-09-01T07:21:42.010Z,997.37
2022-09-01T07:23:03.643Z,997.37
2022-09-01T07:24:38.884Z,997.38
2022-09-01T07:26:46.797Z,997.37
2022-09-01T07:28:38.846Z,997.39
2022-09-01T07:29:38.822Z,997.37
2022-09-01T07:30:40.698Z,997.39
2022-09-01T07:32:44.067Z,997.43
2022-09-01T07:33:41.981Z,997.44
2022-09-01T07:34:39.510Z,997.45
2022-09-01T07:35:39.361Z,997.43
2022-09-01T07:37:16.126Z,997.47
2022-09-01T07:39:55.319Z,997.47
2022-09-01T07:42:30.980Z,997.30
2022-09-01T07:42:31.866Z,997.39
2022-09-01T07:43:38.660Z,997.46
2022-09-01T07:44:38.639Z,997.49
2022-09-01T07:45:47.237Z,997.51
2022-09-01T07:46:38.821Z,997.49
2022-09-01T07:47:54.382Z,997.47
2022-09-01T07:50:11.536Z,997.50
2022-09-01T07:51:33.985Z,997.51
2022-09-01T07:51:38.695Z,997.52
2022-09-01T07:52:38.556Z,997.52
2022-09-01T07:53:38.533Z,997.49
2022-09-01T07:54:38.527Z,997.54
2022-09-01T07:55:38.512Z,997.52
2022-09-01T07:56:40.395Z,997.51
2022-09-01T07:57:38.489Z,997.51
2022-09-01T07:58:38.485Z,997.51
2022-09-01T07:59:38.467Z,997.49
2022-09-01T08:00:38.457Z,997.51
2022-09-01T08:01:38.476Z,997.52
2022-09-01T08:02:38.513Z,997.48
2022-09-01T08:03:38.423Z,997.52
2022-09-01T08:04:38.412Z,997.49
2022-09-01T08:05:38.404Z,997.49
2022-09-01T08:06:38.500Z,997.50
2022-09-01T08:07:51.600Z,997.50
2022-09-01T08:08:38.617Z,997.51
2022-09-01T08:09:43.841Z,997.52
2022-09-01T08:10:38.349Z,997.51
2022-09-01T08:12:03.094Z,997.55
2022-09-01T08:12:38.325Z,997.53
2022-09-01T08:13:41.703Z,997.58
2022-09-01T08:14:38.375Z,997.56
2022-09-01T08:15:41.055Z,997.61
2022-09-01T08:16:40.069Z,997.58
2022-09-01T08:17:53.738Z,997.52
2022-09-01T08:18:52.838Z,997.59
2022-09-01T08:19:38.268Z,997.56
2022-09-01T08:20:38.250Z,997.54
2022-09-01T08:21:38.247Z,997.56
2022-09-01T08:22:38.226Z,997.59
2022-09-01T08:23:38.213Z,997.60
2022-09-01T08:24:38.202Z,997.58
2022-09-01T08:25:38.191Z,997.52
2022-09-01T08:26:38.183Z,997.57
2022-09-01T08:27:38.170Z,997.59
2022-09-01T08:28:38.179Z,997.59
2022-09-01T08:29:38.152Z,997.59
2022-09-01T08:30:38.144Z,997.59
2022-09-01T08:31:38.177Z,997.62
2022-09-01T08:32:38.120Z,997.62
2022-09-01T08:33:38.110Z,997.59
2022-09-01T08:34:38.111Z,997.59
2022-09-01T08:35:38.096Z,997.57
2022-09-01T08:36:38.079Z,997.60
2022-09-01T08:37:38.078Z,997.57
2022-09-01T08:38:38.077Z,997.59
2022-09-01T08:39:38.054Z,997.57
2022-09-01T08:40:38.075Z,997.58
2022-09-01T08:41:38.041Z,997.56
2022-09-01T08:42:38.025Z,997.57
2022-09-01T08:43:38.054Z,997.57
2022-09-01T08:44:38.007Z,997.60
2022-09-01T08:45:38.011Z,997.58
2022-09-01T08:46:38.082Z,997.64
2022-09-01T08:47:55.973Z,997.58
2022-09-01T08:49:23.587Z,997.59
2022-09-01T08:49:45.106Z,997.57
2022-09-01T08:50:37.945Z,997.57
2022-09-01T08:51:37.942Z,997.59
2022-09-01T08:52:37.934Z,997.56
2022-09-01T08:53:37.917Z,997.57
2022-09-01T08:54:37.909Z,997.59
2022-09-01T08:55:37.905Z,997.59
2022-09-01T08:56:37.889Z,997.56
2022-09-01T08:57:37.881Z,997.61
2022-09-01T08:58:37.872Z,997.61
2022-09-01T08:59:38.983Z,997.59
2022-09-01T09:00:37.863Z,997.57
2022-09-01T09:01:37.905Z,997.59
2022-09-01T09:02:37.879Z,997.54
2022-09-01T09:03:41.131Z,997.55
2022-09-01T09:04:37.845Z,997.58
2022-09-01T09:05:37.807Z,997.59
2022-09-01T09:06:37.801Z,997.56
2022-09-01T09:07:37.815Z,997.53
2022-09-01T09:08:37.781Z,997.54
2022-09-01T09:09:37.773Z,997.53
2022-09-01T09:10:37.771Z,997.53
2022-09-01T09:11:38.065Z,997.56
2022-09-01T09:12:48.994Z,997.58
2022-09-01T09:13:37.764Z,997.61
2022-09-01T09:14:37.742Z,997.62
2022-09-01T09:15:37.769Z,997.57
2022-09-01T09:16:37.715Z,997.56
2022-09-01T09:17:37.699Z,997.54
2022-09-01T09:18:39.117Z,997.52
2022-09-01T09:19:37.679Z,997.53
2022-09-01T09:20:38.383Z,997.51
2022-09-01T09:21:37.673Z,997.54
2022-09-01T09:22:37.654Z,997.54
2022-09-01T09:23:37.645Z,997.51
2022-09-01T09:24:39.292Z,997.53
2022-09-01T09:25:37.633Z,997.51
2022-09-01T09:26:44.913Z,997.49
2022-09-01T09:27:37.614Z,997.50
2022-09-01T09:28:37.598Z,997.48
2022-09-01T09:29:37.596Z,997.46
2022-09-01T09:30:38.522Z,997.49
2022-09-01T09:31:37.771Z,997.47
2022-09-01T09:33:06.504Z,997.47
2022-09-01T09:33:48.550Z,997.45
2022-09-01T09:34:37.546Z,997.43
2022-09-01T09:35:37.544Z,997.43
2022-09-01T09:36:37.531Z,997.48
2022-09-01T09:37:37.525Z,997.44
2022-09-01T09:38:37.509Z,997.45
2022-09-01T09:39:37.508Z,997.39
2022-09-01T09:41:06.722Z,997.41
2022-09-01T09:41:37.535Z,997.40
2022-09-01T09:42:37.536Z,997.41
2022-09-01T09:43:37.482Z,997.36
2022-09-01T09:44:37.458Z,997.38
2022-09-01T09:45:37.985Z,997.38
2022-09-01T09:46:37.471Z,997.35
2022-09-01T09:47:45.208Z,997.39
2022-09-01T09:48:37.437Z,997.38
2022-09-01T09:49:43.175Z,997.35
2022-09-01T09:50:38.118Z,997.35
2022-09-01T09:51:37.467Z,997.34
2022-09-01T09:52:38.012Z,997.36
2022-09-01T09:53:37.384Z,997.32
2022-09-01T09:54:37.375Z,997.31
2022-09-01T09:55:37.365Z,997.28
2022-09-01T09:56:37.351Z,997.30
2022-09-01T09:57:37.359Z,997.33
2022-09-01T09:58:37.338Z,997.33
2022-09-01T09:59:57.201Z,997.32
2022-09-01T10:00:37.319Z,997.32
2022-09-01T10:01:37.359Z,997.22
2022-09-01T10:02:37.299Z,997.22
2022-09-01T10:03:37.358Z,997.19
2022-09-01T10:04:37.281Z,997.26
2022-09-01T10:05:37.277Z,997.25
2022-09-01T10:06:37.271Z,997.25
2022-09-01T10:07:37.260Z,997.23
2022-09-01T10:08:37.258Z,997.29
2022-09-01T10:09:37.241Z,997.27
2022-09-01T10:10:37.234Z,997.27
2022-09-01T10:11:41.446Z,997.23
2022-09-01T10:12:37.235Z,997.22
2022-09-01T10:13:37.208Z,997.21
2022-09-01T10:14:51.712Z,997.22
2022-09-01T10:15:37.193Z,997.17
2022-09-01T10:16:37.194Z,997.19
2022-09-01T10:17:37.174Z,997.19
2022-09-01T10:18:37.339Z,997.20
2022-09-01T10:19:37.171Z,997.19
2022-09-01T10:20:37.155Z,997.22
2022-09-01T10:21:37.149Z,997.21
2022-09-01T10:22:37.132Z,997.22
2022-09-01T10:23:37.123Z,997.18
2022-09-01T10:24:38.795Z,997.19
2022-09-01T10:25:37.111Z,997.19
2022-09-01T10:26:37.421Z,997.18
2022-09-01T10:27:37.101Z,997.18
2022-09-01T10:28:37.092Z,997.18
2022-09-01T10:29:47.433Z,997.20
2022-09-01T10:30:37.099Z,997.21
2022-09-01T10:31:37.069Z,997.14
2022-09-01T10:32:38.627Z,997.14
2022-09-01T10:33:37.235Z,997.13
2022-09-01T10:34:37.075Z,997.11
2022-09-01T10:35:39.723Z,997.10
2022-09-01T10:36:37.815Z,997.09
2022-09-01T10:37:37.017Z,997.08
2022-09-01T10:38:37.008Z,997.10
2022-09-01T10:39:42.994Z,997.07
2022-09-01T10:40:38.197Z,997.05
2022-09-01T10:41:36.993Z,997.04
2022-09-01T10:42:36.990Z,997.08
2022-09-01T10:43:37.545Z,997.11
2022-09-01T10:44:36.987Z,997.08
2022-09-01T10:45:38.214Z,997.05
2022-09-01T10:46:39.271Z,997.03
2022-09-01T10:47:36.966Z,997.02
2022-09-01T10:48:48.808Z,997.08
2022-09-01T10:49:36.929Z,997.01
2022-09-01T10:50:36.924Z,997.04
2022-09-01T10:51:39.613Z,996.99
2022-09-01T10:52:37.206Z,997.00
2022-09-01T10:53:36.911Z,996.98
2022-09-01T10:54:38.655Z,997.00
2022-09-01T10:55:36.892Z,997.03
2022-09-01T10:56:37.024Z,996.97
2022-09-01T10:57:42.298Z,996.96
2022-09-01T10:59:41.745Z,997.03
2022-09-01T11:00:37.223Z,997.01
2022-09-01T11:01:47.865Z,997.02
2022-09-01T11:02:46.361Z,997.08
2022-09-01T11:03:47.783Z,997.17
2022-09-01T11:04:36.909Z,997.03
2022-09-01T11:05:36.881Z,997.02
2022-09-01T11:06:36.907Z,996.99
2022-09-01T11:08:01.453Z,996.95
2022-09-01T11:08:36.840Z,997.00
2022-09-01T11:09:36.822Z,996.94
2022-09-01T11:10:36.824Z,996.85
2022-09-01T11:11:36.776Z,996.93
2022-09-01T11:12:36.779Z,996.92
2022-09-01T11:13:36.777Z,996.94
2022-09-01T11:14:36.756Z,996.99
2022-09-01T11:15:36.757Z,996.95
2022-09-01T11:16:52.112Z,996.92
2022-09-01T11:17:36.872Z,996.92
2022-09-01T11:18:36.739Z,996.94
2022-09-01T11:19:36.728Z,996.97
2022-09-01T11:20:36.855Z,996.97
2022-09-01T11:21:38.252Z,996.87
2022-09-01T11:22:38.079Z,996.86
2022-09-01T11:23:36.705Z,996.95
2022-09-01T11:24:37.845Z,996.95
2022-09-01T11:25:40.198Z,996.90
2022-09-01T11:26:36.700Z,996.91
2022-09-01T11:27:36.690Z,996.94
2022-09-01T11:28:36.684Z,996.86
2022-09-01T11:29:36.690Z,997.04
2022-09-01T11:30:36.684Z,996.98
2022-09-01T11:31:36.730Z,996.92
2022-09-01T11:32:36.673Z,996.90
2022-09-01T11:33:36.672Z,996.89
2022-09-01T11:34:36.686Z,996.93
2022-09-01T11:35:36.666Z,996.85
2022-09-01T11:36:36.668Z,996.84
2022-09-01T11:37:36.657Z,996.85
2022-09-01T11:38:36.672Z,996.88
2022-09-01T11:39:36.671Z,996.90
2022-09-01T11:40:36.783Z,996.87
2022-09-01T11:41:36.647Z,996.86
2022-09-01T11:42:36.642Z,996.78
2022-09-01T11:43:36.638Z,996.84
2022-09-01T11:44:36.637Z,996.80
2022-09-01T11:45:36.682Z,996.78
2022-09-01T11:46:36.631Z,996.77
2022-09-01T11:47:36.626Z,996.82
2022-09-01T11:48:36.622Z,996.77
2022-09-01T11:49:36.638Z,996.69
2022-09-01T11:50:36.618Z,996.68
2022-09-01T11:51:36.616Z,996.78
2022-09-01T11:52:36.611Z,996.75
2022-09-01T11:53:36.614Z,996.67
2022-09-01T11:54:36.613Z,996.67
2022-09-01T11:55:36.612Z,996.63
2022-09-01T11:56:36.601Z,996.62
2022-09-01T11:57:36.602Z,996.65
2022-09-01T11:58:36.607Z,996.60
2022-09-01T11:59:36.595Z,996.62
2022-09-01T12:00:36.621Z,996.59
2022-09-01T12:01:36.626Z,996.60
2022-09-01T12:02:37.223Z,996.58
2022-09-01T12:03:36.688Z,996.49
2022-09-01T12:04:36.576Z,996.52
2022-09-01T12:05:36.581Z,996.52
2022-09-01T12:06:36.570Z,996.49
2022-09-01T12:07:36.573Z,996.54
2022-09-01T12:08:36.585Z,996.48
2022-09-01T12:09:36.634Z,996.44
2022-09-01T12:10:36.588Z,996.43
2022-09-01T12:11:44.780Z,996.47
2022-09-01T12:13:41.069Z,996.43
2022-09-01T12:15:04.222Z,996.37
2022-09-01T12:16:45.527Z,996.43
2022-09-01T12:17:45.507Z,996.40
2022-09-01T12:19:50.004Z,996.37
2022-09-01T12:22:44.383Z,996.38
2022-09-01T12:23:44.361Z,996.32
2022-09-01T12:25:48.825Z,996.25
2022-09-01T12:26:48.805Z,996.29
2022-09-01T12:27:48.802Z,996.34
2022-09-01T12:28:48.795Z,996.28
2022-09-01T12:29:48.789Z,996.24
2022-09-01T12:30:48.785Z,996.28
2022-09-01T12:31:48.866Z,996.23
2022-09-01T12:32:48.773Z,996.24
2022-09-01T12:33:48.788Z,996.27
2022-09-01T12:34:48.763Z,996.24
2022-09-01T12:35:48.758Z,996.22
2022-09-01T12:36:48.756Z,996.21
2022-09-01T12:37:48.746Z,996.24
2022-09-01T12:38:48.743Z,996.16
2022-09-01T12:39:48.737Z,996.19
2022-09-01T12:40:48.755Z,996.16
2022-09-01T12:41:48.724Z,996.18
2022-09-01T12:42:48.722Z,996.16
2022-09-01T12:43:54.632Z,996.15
2022-09-01T12:44:49.162Z,996.16
2022-09-01T12:45:48.725Z,996.17
2022-09-01T12:46:48.700Z,996.15
2022-09-01T12:47:50.410Z,996.19
2022-09-01T12:48:49.592Z,996.24
2022-09-01T12:49:52.073Z,996.18
2022-09-01T12:50:48.679Z,996.18
2022-09-01T12:51:48.758Z,996.14
2022-09-01T12:52:48.667Z,996.14
2022-09-01T12:53:48.665Z,996.09
2022-09-01T12:54:48.661Z,996.12
2022-09-01T12:55:48.677Z,996.14
2022-09-01T12:56:48.649Z,996.18
2022-09-01T12:57:48.646Z,996.10
2022-09-01T12:58:48.640Z,996.15
2022-09-01T12:59:48.662Z,996.13
2022-09-01T13:00:48.673Z,996.13
2022-09-01T13:01:48.764Z,996.15
2022-09-01T13:02:48.760Z,996.11